Portada
METAR-TAF:

METAR-TAF

Aeropuertos :

Base Aérea de Alcantarilla

Murcia, España

latitud: 37-57N, longitud: 001-14W, altitud: 75 m

Observación

El informe se hizo hace 4 horas y 34 minutos, a las 18:00 UTC
Viento 5 kt del este, variando entre este-noreste y este-sureste
Temperatura 15°C
Humedad 88%
Presión 1008 hPa
Visibilidad 10 km o más
Escasas nubes a una altura de 1500 ft
Nubes dispersas a una altura de 3200 ft

METAR: LERI 311800Z 09005KT 060V120 9999 FEW015 SCT032 15/13 Q1008 NOSIG

Hora: 00:34 (22:34 UTC)

Pronóstico

El informe se hizo hace 8 horas y 34 minutos, a las 14:00 UTC
Pronóstico válido del 31 a las 15 UTC al 31 a las 24 UTC
Viento 2 kt con dirección variable
Visibilidad 10 km o más
Nubes dispersas a una altura de 1500 ft
Nubes dispersas a una altura de 3000 ft

TAF: LERI 311400Z 3115/3124 VRB02KT 9999 SCT015 SCT030

Observaciones y pronósticos meteorológicos de más de 4000 aeropuertos (mensajes METAR y TAF).

Los puntos amarillos y rojos representan las estaciones disponibles.

Ponga el ratón en el punto deseado para ver el nombre de la estación.

Haga clic para ver las observaciones y los pronósticos meteorológicos.

Para cambiar el mapa : haga clic en los botones verdes con una cruz de color negro para hacer un zoom, en el botón verde con un guión para alejar o en las flechas verdes para mapas adyacentes.


METAR-TAF: